Time;durP1;ratioP1;P1;durP2;ratioP2;P2;SDS_P1;SDS_P2;PMS_P1;PMS_P2;Temp;Humidity;BMP_temperature;BMP_pressure;BME280_temperature;BME280_humidity;BME280_pressure;Samples;Min_cycle;Max_cycle;Signal;HPM_P1;HPM_P2
2023/12/26 00:01:35;;;;;;;;;;;;;;;;;;107445;1253;61715;-81
2023/12/26 00:04:01;;;;;;;;;;;;;;;;;;107466;1254;61689;-81
2023/12/26 00:06:28;;;;;;;;;;;;;;;;;;107479;1254;62745;-81
2023/12/26 00:08:54;;;;;;;;;;;;;;;;;;107435;1254;62955;-80
2023/12/26 00:11:21;;;;;;;;;;;;;;;;;;107430;1254;62757;-81
2023/12/26 00:13:47;;;;;;;;;;;;;;;;;;107508;1254;60701;-80
2023/12/26 00:16:13;;;;;;;;;;;;;;;;;;107439;1254;62921;-81
2023/12/26 00:18:40;;;;;;;;;;;;;;;;;;107449;1254;61553;-82
2023/12/26 00:21:07;;;;;;;;;;;;;;;;;;107466;1254;60612;-81
2023/12/26 00:23:34;;;;;;;;;;;;;;;;;;107417;1254;61709;-82
2023/12/26 00:26:00;;;;;;;;;;;;;;;;;;107433;1254;61638;-81
2023/12/26 00:28:26;;;;;;;;;;;;;;;;;;107384;1254;60152;-81
2023/12/26 00:30:53;;;;;;;;;;;;;;;;;;107459;1254;60727;-81
2023/12/26 00:33:19;;;;;;;;;;;;;;;;;;107410;1254;60607;-81
2023/12/26 00:35:45;;;;;;;;;;;;;;;;;;107430;1254;60366;-81
2023/12/26 00:38:12;;;;;;;;;;;;;;;;;;107493;1254;62788;-82
2023/12/26 00:40:41;;;;;;;;;;;;;;;;;;107351;1253;61722;-81
2023/12/26 00:43:07;;;;;;;;;;;;;;;;;;107452;1252;60664;-81
2023/12/26 00:45:33;;;;;;;;;;;;;;;;;;107370;1253;59966;-81
2023/12/26 00:48:00;;;;;;;;;;;;;;;;;;106826;1254;60596;-81
2023/12/26 00:50:26;;;;;;;;;;;;;;;;;;106793;1254;60737;-81
2023/12/26 00:52:53;;;;;;;;;;;;;;;;;;106808;1252;61687;-81
2023/12/26 00:55:19;;;;;;;;;;;;;;;;;;106822;1254;61659;-80
2023/12/26 00:57:45;;;;;;;;;;;;;;;;;;106886;1254;60804;-81
2023/12/26 01:00:12;;;;;;;;;;;;;;;;;;108402;1253;60534;-81
2023/12/26 01:02:38;;;;;;;;;;;;;;;;;;109437;1253;59978;-81
2023/12/26 01:05:05;;;;;;;;;;;;;;;;;;109491;1253;59698;-81
2023/12/26 01:07:31;;;;;;;;;;;;;;;;;;107743;1256;60696;-81
2023/12/26 01:10:00;;;;;;;;;;;;;;;;;;107491;1254;61622;-81
2023/12/26 01:12:26;;;;;;;;;;;;;;;;;;107508;1254;60431;-81
2023/12/26 01:14:53;;;;;;;;;;;;;;;;;;107482;1254;60828;-81
2023/12/26 01:17:19;;;;;;;;;;;;;;;;;;107463;1253;60600;-80
2023/12/26 01:19:47;;;;;;;;;;;;;;;;;;107525;1252;61426;-81
2023/12/26 01:22:13;;;;;;;;;;;;;;;;;;107464;1254;62819;-81
2023/12/26 01:24:40;;;;;;;;;;;;;;;;;;107876;1253;62102;-80
2023/12/26 01:27:06;;;;;;;;;;;;;;;;;;107519;1253;60543;-80
2023/12/26 01:29:32;;;;;;;;;;;;;;;;;;107723;1254;60573;-81
2023/12/26 01:31:59;;;;;;;;;;;;;;;;;;107794;1253;60635;-81
2023/12/26 01:34:25;;;;;;;;;;;;;;;;;;107473;1254;59965;-81
2023/12/26 01:36:51;;;;;;;;;;;;;;;;;;107438;1254;61837;-81
2023/12/26 01:39:18;;;;;;;;;;;;;;;;;;107396;1254;61632;-82
2023/12/26 01:41:45;;;;;;;;;;;;;;;;;;107441;1253;61573;-82
2023/12/26 01:44:12;;;;;;;;;;;;;;;;;;107448;1254;60578;-80
2023/12/26 01:46:39;;;;;;;;;;;;;;;;;;107421;1252;61446;-81
2023/12/26 01:49:05;;;;;;;;;;;;;;;;;;107393;1254;61540;-81
2023/12/26 01:51:31;;;;;;;;;;;;;;;;;;107430;1253;60441;-81
2023/12/26 01:53:58;;;;;;;;;;;;;;;;;;107449;1254;60621;-81
2023/12/26 01:56:26;;;;;;;;;;;;;;;;;;107402;1254;61465;-81
2023/12/26 01:58:52;;;;;;;;;;;;;;;;;;107397;1252;63740;-81
2023/12/26 02:01:18;;;;;;;;;;;;;;;;;;107332;1254;61765;-81
2023/12/26 02:03:45;;;;;;;;;;;;;;;;;;107408;1252;60494;-81
2023/12/26 02:06:11;;;;;;;;;;;;;;;;;;107362;1254;60558;-81
2023/12/26 02:08:38;;;;;;;;;;;;;;;;;;107352;1253;60565;-80
2023/12/26 02:11:04;;;;;;;;;;;;;;;;;;107371;1254;60640;-81
2023/12/26 02:13:30;;;;;;;;;;;;;;;;;;107472;1254;61921;-81
2023/12/26 02:15:57;;;;;;;;;;;;;;;;;;107486;1253;60661;-80
2023/12/26 02:18:24;;;;;;;;;;;;;;;;;;107334;1256;60656;-81
2023/12/26 02:20:50;;;;;;;;;;;;;;;;;;107478;1256;62846;-80
2023/12/26 02:23:16;;;;;;;;;;;;;;;;;;107475;1253;62803;-80
2023/12/26 02:25:43;;;;;;;;;;;;;;;;;;107403;1254;60116;-81
2023/12/26 02:28:09;;;;;;;;;;;;;;;;;;107458;1254;61654;-80
2023/12/26 02:30:36;;;;;;;;;;;;;;;;;;107516;1252;60347;-81
2023/12/26 02:33:02;;;;;;;;;;;;;;;;;;107508;1254;60553;-81
2023/12/26 02:35:28;;;;;;;;;;;;;;;;;;107517;1254;60661;-81
2023/12/26 02:37:55;;;;;;;;;;;;;;;;;;107485;1254;61652;-81
2023/12/26 02:40:21;;;;;;;;;;;;;;;;;;107726;1253;60640;-81
2023/12/26 02:42:48;;;;;;;;;;;;;;;;;;108231;1253;60071;-81
2023/12/26 02:45:14;;;;;;;;;;;;;;;;;;108208;1254;60615;-81
2023/12/26 02:47:41;;;;;;;;;;;;;;;;;;108281;1254;61069;-81
2023/12/26 02:50:07;;;;;;;;;;;;;;;;;;108504;1254;60389;-81
2023/12/26 02:52:34;;;;;;;;;;;;;;;;;;109148;1254;60047;-81
2023/12/26 02:55:00;;;;;;;;;;;;;;;;;;108095;1254;60680;-81
2023/12/26 02:57:26;;;;;;;;;;;;;;;;;;107874;1254;62916;-81
2023/12/26 02:59:53;;;;;;;;;;;;;;;;;;107916;1254;62255;-81
2023/12/26 03:02:19;;;;;;;;;;;;;;;;;;107863;1253;60583;-81
2023/12/26 03:04:45;;;;;;;;;;;;;;;;;;107384;1254;61081;-80
2023/12/26 03:07:12;;;;;;;;;;;;;;;;;;107345;1254;60718;-80
2023/12/26 03:09:38;;;;;;;;;;;;;;;;;;106814;1254;59937;-80
2023/12/26 03:12:05;;;;;;;;;;;;;;;;;;106817;1254;60631;-80
2023/12/26 03:14:31;;;;;;;;;;;;;;;;;;106827;1254;60556;-80
2023/12/26 03:16:57;;;;;;;;;;;;;;;;;;106834;1254;60648;-80
2023/12/26 03:19:24;;;;;;;;;;;;;;;;;;106823;1254;61063;-80
2023/12/26 03:21:50;;;;;;;;;;;;;;;;;;106956;1254;61664;-81
2023/12/26 03:24:16;;;;;;;;;;;;;;;;;;106853;1254;60490;-80
2023/12/26 03:26:43;;;;;;;;;;;;;;;;;;106907;1254;61480;-80
2023/12/26 03:29:09;;;;;;;;;;;;;;;;;;106906;1256;83743;-80
2023/12/26 03:31:39;;;;;;;;;;;;;;;;;;106899;1252;60661;-80
2023/12/26 03:34:05;;;;;;;;;;;;;;;;;;106871;1254;62608;-79
2023/12/26 03:36:32;;;;;;;;;;;;;;;;;;106862;1256;60566;-81
2023/12/26 03:38:58;;;;;;;;;;;;;;;;;;106822;1254;60610;-80
2023/12/26 03:41:25;;;;;;;;;;;;;;;;;;106876;1256;59982;-80
2023/12/26 03:43:51;;;;;;;;;;;;;;;;;;106825;1254;61641;-81
2023/12/26 03:46:17;;;;;;;;;;;;;;;;;;106828;1256;60696;-80
2023/12/26 03:48:44;;;;;;;;;;;;;;;;;;106830;1254;60629;-80
2023/12/26 03:51:11;;;;;;;;;;;;;;;;;;106898;1254;62675;-80
2023/12/26 03:53:37;;;;;;;;;;;;;;;;;;106804;1256;60570;-81
2023/12/26 03:56:03;;;;;;;;;;;;;;;;;;106878;1256;60317;-80
2023/12/26 03:58:30;;;;;;;;;;;;;;;;;;106846;1254;62751;-80
2023/12/26 04:00:56;;;;;;;;;;;;;;;;;;106917;1253;62923;-80
2023/12/26 04:03:22;;;;;;;;;;;;;;;;;;106843;1254;60654;-80
2023/12/26 04:05:49;;;;;;;;;;;;;;;;;;106878;1254;60580;-80
2023/12/26 04:08:15;;;;;;;;;;;;;;;;;;106835;1254;61667;-80
2023/12/26 04:10:41;;;;;;;;;;;;;;;;;;106878;1253;61615;-80
2023/12/26 04:13:08;;;;;;;;;;;;;;;;;;106838;1254;60701;-80
2023/12/26 04:15:34;;;;;;;;;;;;;;;;;;108725;1254;60689;-81
2023/12/26 04:18:02;;;;;;;;;;;;;;;;;;109495;1253;59714;-80
2023/12/26 04:20:28;;;;;;;;;;;;;;;;;;109506;1254;59971;-80
2023/12/26 04:22:55;;;;;;;;;;;;;;;;;;109500;1254;59814;-80
2023/12/26 04:25:22;;;;;;;;;;;;;;;;;;109534;1253;59962;-80
2023/12/26 04:27:49;;;;;;;;;;;;;;;;;;109496;1254;60861;-80
2023/12/26 04:30:15;;;;;;;;;;;;;;;;;;109482;1254;59805;-80
2023/12/26 04:32:41;;;;;;;;;;;;;;;;;;109445;1252;59719;-80
2023/12/26 04:35:08;;;;;;;;;;;;;;;;;;109516;1254;59645;-80
2023/12/26 04:37:34;;;;;;;;;;;;;;;;;;109454;1254;60017;-80
2023/12/26 04:40:01;;;;;;;;;;;;;;;;;;107572;1257;60729;-80
2023/12/26 04:42:28;;;;;;;;;;;;;;;;;;106836;1255;60585;-80
2023/12/26 04:44:54;;;;;;;;;;;;;;;;;;106891;1254;62715;-80
2023/12/26 04:47:21;;;;;;;;;;;;;;;;;;106859;1256;62702;-80
2023/12/26 04:49:47;;;;;;;;;;;;;;;;;;106917;1254;60536;-80
2023/12/26 04:52:14;;;;;;;;;;;;;;;;;;106893;1254;60642;-80
2023/12/26 04:54:41;;;;;;;;;;;;;;;;;;106963;1254;61644;-80
2023/12/26 04:57:10;;;;;;;;;;;;;;;;;;106939;1253;60630;-81
2023/12/26 04:59:37;;;;;;;;;;;;;;;;;;106959;1253;62541;-81
2023/12/26 05:02:04;;;;;;;;;;;;;;;;;;106894;1256;61732;-81
2023/12/26 05:04:31;;;;;;;;;;;;;;;;;;106911;1256;61765;-80
2023/12/26 05:06:57;;;;;;;;;;;;;;;;;;107022;1254;60690;-81
2023/12/26 05:09:24;;;;;;;;;;;;;;;;;;106909;1257;60569;-80
2023/12/26 05:11:50;;;;;;;;;;;;;;;;;;106920;1256;61692;-81
2023/12/26 05:14:18;;;;;;;;;;;;;;;;;;106923;1254;61614;-80
2023/12/26 05:16:46;;;;;;;;;;;;;;;;;;106860;1254;60618;-80
2023/12/26 05:19:12;;;;;;;;;;;;;;;;;;106822;1254;61612;-80
2023/12/26 05:21:38;;;;;;;;;;;;;;;;;;106901;1254;60489;-81
2023/12/26 05:24:05;;;;;;;;;;;;;;;;;;106886;1256;61815;-80
2023/12/26 05:26:31;;;;;;;;;;;;;;;;;;106776;1256;61561;-80
2023/12/26 05:28:58;;;;;;;;;;;;;;;;;;107362;1254;61643;-80
2023/12/26 05:31:24;;;;;;;;;;;;;;;;;;107319;1254;60612;-81
2023/12/26 05:33:51;;;;;;;;;;;;;;;;;;107393;1256;60715;-80
2023/12/26 05:36:17;;;;;;;;;;;;;;;;;;107390;1256;60509;-80
2023/12/26 05:38:43;;;;;;;;;;;;;;;;;;107323;1253;60581;-80
2023/12/26 05:41:10;;;;;;;;;;;;;;;;;;107354;1256;61613;-80
2023/12/26 05:43:36;;;;;;;;;;;;;;;;;;107417;1254;60622;-80
2023/12/26 05:46:02;;;;;;;;;;;;;;;;;;107450;1257;60689;-81
2023/12/26 05:48:29;;;;;;;;;;;;;;;;;;107365;1255;60659;-81
2023/12/26 05:50:55;;;;;;;;;;;;;;;;;;106900;1257;60669;-81
2023/12/26 05:53:23;;;;;;;;;;;;;;;;;;106833;1253;61025;-81
2023/12/26 05:55:49;;;;;;;;;;;;;;;;;;106872;1256;61890;-80
2023/12/26 05:58:15;;;;;;;;;;;;;;;;;;106828;1254;61574;-81
2023/12/26 06:00:42;;;;;;;;;;;;;;;;;;106880;1254;61024;-80
2023/12/26 06:03:08;;;;;;;;;;;;;;;;;;106863;1256;62671;-80
2023/12/26 06:05:34;;;;;;;;;;;;;;;;;;106858;1254;62134;-80
2023/12/26 06:08:01;;;;;;;;;;;;;;;;;;106874;1252;61669;-81
2023/12/26 06:10:27;;;;;;;;;;;;;;;;;;106837;1254;62930;-80
2023/12/26 06:12:54;;;;;;;;;;;;;;;;;;106839;1255;61735;-80
2023/12/26 06:15:20;;;;;;;;;;;;;;;;;;106876;1255;61836;-80
2023/12/26 06:17:46;;;;;;;;;;;;;;;;;;106908;1253;60685;-80
2023/12/26 06:20:14;;;;;;;;;;;;;;;;;;106868;1257;60612;-81
2023/12/26 06:22:41;;;;;;;;;;;;;;;;;;106865;1256;60715;-80
2023/12/26 06:25:07;;;;;;;;;;;;;;;;;;106799;1254;61631;-81
2023/12/26 06:27:34;;;;;;;;;;;;;;;;;;107890;1256;60632;-81
2023/12/26 06:30:00;;;;;;;;;;;;;;;;;;109506;1254;60003;-81
2023/12/26 06:32:26;;;;;;;;;;;;;;;;;;109397;1254;115425;-81
2023/12/26 06:34:54;;;;;;;;;;;;;;;;;;109486;1254;59743;-81
2023/12/26 06:37:20;;;;;;;;;;;;;;;;;;109500;1256;59721;-81
2023/12/26 06:39:46;;;;;;;;;;;;;;;;;;109484;1254;59695;-80
2023/12/26 06:42:13;;;;;;;;;;;;;;;;;;109460;1254;59792;-81
2023/12/26 06:44:40;;;;;;;;;;;;;;;;;;109464;1254;59976;-80
2023/12/26 06:47:06;;;;;;;;;;;;;;;;;;109506;1255;59690;-80
2023/12/26 06:49:33;;;;;;;;;;;;;;;;;;109486;1254;62375;-80
2023/12/26 06:52:00;;;;;;;;;;;;;;;;;;109482;1254;59660;-80
2023/12/26 06:54:26;;;;;;;;;;;;;;;;;;109487;1254;60385;-80
2023/12/26 06:56:52;;;;;;;;;;;;;;;;;;108580;1254;59970;-80
2023/12/26 06:59:19;;;;;;;;;;;;;;;;;;107346;1255;61722;-80
2023/12/26 07:01:46;;;;;;;;;;;;;;;;;;107463;1254;61834;-81
2023/12/26 07:04:12;;;;;;;;;;;;;;;;;;107530;1254;62950;-80
2023/12/26 07:06:38;;;;;;;;;;;;;;;;;;107432;1254;60633;-80
2023/12/26 07:09:05;;;;;;;;;;;;;;;;;;107434;1255;60547;-81
2023/12/26 07:11:33;;;;;;;;;;;;;;;;;;107446;1254;61451;-80
2023/12/26 07:13:59;;;;;;;;;;;;;;;;;;107518;1254;61613;-80
2023/12/26 07:16:25;;;;;;;;;;;;;;;;;;107532;1254;60662;-81
2023/12/26 07:18:53;;;;;;;;;;;;;;;;;;107390;1254;60058;-80
2023/12/26 07:21:20;;;;;;;;;;;;;;;;;;107504;1254;60552;-81
2023/12/26 07:23:47;;;;;;;;;;;;;;;;;;107439;1255;60617;-80
2023/12/26 07:26:13;;;;;;;;;;;;;;;;;;107458;1254;61687;-80
2023/12/26 07:28:40;;;;;;;;;;;;;;;;;;107394;1254;60598;-81
2023/12/26 07:31:07;;;;;;;;;;;;;;;;;;107465;1254;60686;-81
2023/12/26 07:33:33;;;;;;;;;;;;;;;;;;107502;1254;60290;-80
2023/12/26 07:36:01;;;;;;;;;;;;;;;;;;107520;1254;61727;-81
2023/12/26 07:38:27;;;;;;;;;;;;;;;;;;107423;1254;63436;-80
2023/12/26 07:40:54;;;;;;;;;;;;;;;;;;107427;1254;61722;-80
2023/12/26 07:43:20;;;;;;;;;;;;;;;;;;107379;1253;60707;-80
2023/12/26 07:45:47;;;;;;;;;;;;;;;;;;107363;1256;60248;-80
2023/12/26 07:48:13;;;;;;;;;;;;;;;;;;107373;1253;60553;-81
2023/12/26 07:50:40;;;;;;;;;;;;;;;;;;107549;1254;60646;-80
2023/12/26 07:53:06;;;;;;;;;;;;;;;;;;107371;1254;62260;-80
2023/12/26 07:55:32;;;;;;;;;;;;;;;;;;107344;1253;61904;-81
2023/12/26 07:57:59;;;;;;;;;;;;;;;;;;107406;1253;60735;-81
2023/12/26 08:00:25;;;;;;;;;;;;;;;;;;107490;1252;60629;-81
2023/12/26 08:02:52;;;;;;;;;;;;;;;;;;107397;1254;60553;-80
2023/12/26 08:05:19;;;;;;;;;;;;;;;;;;107372;1254;61596;-80
2023/12/26 08:07:46;;;;;;;;;;;;;;;;;;107360;1257;60605;-80
2023/12/26 08:10:12;;;;;;;;;;;;;;;;;;107477;1254;60541;-81
2023/12/26 08:12:38;;;;;;;;;;;;;;;;;;107415;1256;60613;-80
2023/12/26 08:15:05;;;;;;;;;;;;;;;;;;107448;1254;60640;-81
2023/12/26 08:17:31;;;;;;;;;;;;;;;;;;107341;1253;60683;-80
2023/12/26 08:19:57;;;;;;;;;;;;;;;;;;107448;1256;62872;-81
2023/12/26 08:22:24;;;;;;;;;;;;;;;;;;106834;1253;61089;-80
2023/12/26 08:24:50;;;;;;;;;;;;;;;;;;106866;1254;60628;-81
2023/12/26 08:27:18;;;;;;;;;;;;;;;;;;106814;1256;60576;-81
2023/12/26 08:29:44;;;;;;;;;;;;;;;;;;106852;1252;60553;-81
2023/12/26 08:32:11;;;;;;;;;;;;;;;;;;106803;1253;61199;-80
2023/12/26 08:34:37;;;;;;;;;;;;;;;;;;106827;1253;60584;-81
2023/12/26 08:37:03;;;;;;;;;;;;;;;;;;106863;1256;62936;-80
2023/12/26 08:39:30;;;;;;;;;;;;;;;;;;106831;1254;61700;-81
2023/12/26 08:41:57;;;;;;;;;;;;;;;;;;106836;1254;62019;-81
2023/12/26 08:44:23;;;;;;;;;;;;;;;;;;106845;1254;61696;-80
2023/12/26 08:46:50;;;;;;;;;;;;;;;;;;106833;1254;61813;-82
2023/12/26 08:49:16;;;;;;;;;;;;;;;;;;106835;1254;61629;-80
2023/12/26 08:51:42;;;;;;;;;;;;;;;;;;106804;1254;60637;-80
2023/12/26 08:54:09;;;;;;;;;;;;;;;;;;107205;1253;61670;-81
2023/12/26 08:56:36;;;;;;;;;;;;;;;;;;109469;1253;59614;-81
2023/12/26 08:59:03;;;;;;;;;;;;;;;;;;109468;1252;59986;-81
2023/12/26 09:01:29;;;;;;;;;;;;;;;;;;107681;1254;60545;-81
2023/12/26 09:03:55;;;;;;;;;;;;;;;;;;107400;1254;60047;-82
2023/12/26 09:06:22;;;;;;;;;;;;;;;;;;107349;1254;60344;-81
2023/12/26 09:08:48;;;;;;;;;;;;;;;;;;107364;1253;61683;-81
2023/12/26 09:11:15;;;;;;;;;;;;;;;;;;107382;1254;61722;-80
2023/12/26 09:13:41;;;;;;;;;;;;;;;;;;107389;1252;60690;-82
2023/12/26 09:16:08;;;;;;;;;;;;;;;;;;107514;1254;61751;-81
2023/12/26 09:18:35;;;;;;;;;;;;;;;;;;107475;1254;60698;-81
2023/12/26 09:21:01;;;;;;;;;;;;;;;;;;107419;1253;60089;-81
2023/12/26 09:23:28;;;;;;;;;;;;;;;;;;107334;1254;62819;-81
2023/12/26 09:25:54;;;;;;;;;;;;;;;;;;107397;1253;61832;-81
2023/12/26 09:28:20;;;;;;;;;;;;;;;;;;107363;1254;61712;-81
2023/12/26 09:30:47;;;;;;;;;;;;;;;;;;107415;1253;60717;-80
2023/12/26 09:33:14;;;;;;;;;;;;;;;;;;107444;1254;61706;-81
2023/12/26 09:35:40;;;;;;;;;;;;;;;;;;107465;1252;60521;-81
2023/12/26 09:38:06;;;;;;;;;;;;;;;;;;107423;1254;60577;-81
2023/12/26 09:40:33;;;;;;;;;;;;;;;;;;107406;1253;60657;-81
2023/12/26 09:43:02;;;;;;;;;;;;;;;;;;107425;1254;60641;-81
2023/12/26 09:45:28;;;;;;;;;;;;;;;;;;107477;1256;60490;-81
2023/12/26 09:47:55;;;;;;;;;;;;;;;;;;107458;1254;60733;-81
2023/12/26 09:50:21;;;;;;;;;;;;;;;;;;107456;1252;62748;-81
2023/12/26 09:52:48;;;;;;;;;;;;;;;;;;107396;1253;60705;-82
2023/12/26 09:55:14;;;;;;;;;;;;;;;;;;107540;1253;60685;-82
2023/12/26 09:57:42;;;;;;;;;;;;;;;;;;107414;1253;60050;-81
2023/12/26 10:00:08;;;;;;;;;;;;;;;;;;107404;1254;62217;-82
2023/12/26 10:02:35;;;;;;;;;;;;;;;;;;107417;1254;60635;-81
2023/12/26 10:05:01;;;;;;;;;;;;;;;;;;107250;1253;61747;-81
2023/12/26 10:07:27;;;;;;;;;;;;;;;;;;107292;1253;61638;-81
2023/12/26 10:09:54;;;;;;;;;;;;;;;;;;107407;1254;61683;-81
2023/12/26 10:12:20;;;;;;;;;;;;;;;;;;107397;1254;60697;-81
2023/12/26 10:14:47;;;;;;;;;;;;;;;;;;107426;1254;60318;-81
2023/12/26 10:17:13;;;;;;;;;;;;;;;;;;107404;1254;62897;-81
2023/12/26 10:19:40;;;;;;;;;;;;;;;;;;107419;1254;61566;-81
2023/12/26 10:22:06;;;;;;;;;;;;;;;;;;107417;1254;61874;-81
2023/12/26 10:24:32;;;;;;;;;;;;;;;;;;107359;1252;60067;-81
2023/12/26 10:26:59;;;;;;;;;;;;;;;;;;107434;1254;60472;-81
2023/12/26 10:29:25;;;;;;;;;;;;;;;;;;107379;1254;60067;-81
2023/12/26 10:31:52;;;;;;;;;;;;;;;;;;107464;1253;60589;-82
2023/12/26 10:34:19;;;;;;;;;;;;;;;;;;107499;1253;62783;-81
2023/12/26 10:36:46;;;;;;;;;;;;;;;;;;107355;1252;61779;-81
2023/12/26 10:39:12;;;;;;;;;;;;;;;;;;107462;1252;60533;-80
2023/12/26 10:41:39;;;;;;;;;;;;;;;;;;107376;1254;61869;-80
2023/12/26 10:44:06;;;;;;;;;;;;;;;;;;107392;1254;60608;-81
2023/12/26 10:46:32;;;;;;;;;;;;;;;;;;107411;1253;60633;-81
2023/12/26 10:48:59;;;;;;;;;;;;;;;;;;107450;1256;60443;-81
2023/12/26 10:51:25;;;;;;;;;;;;;;;;;;107447;1253;60701;-80
2023/12/26 10:53:51;;;;;;;;;;;;;;;;;;107470;1254;61536;-81
2023/12/26 10:56:18;;;;;;;;;;;;;;;;;;107412;1252;61513;-81
2023/12/26 10:58:44;;;;;;;;;;;;;;;;;;107434;1254;60650;-81
2023/12/26 11:01:10;;;;;;;;;;;;;;;;;;107404;1254;60572;-81
2023/12/26 11:03:37;;;;;;;;;;;;;;;;;;107439;1254;60824;-81
2023/12/26 11:06:03;;;;;;;;;;;;;;;;;;107443;1254;61698;-81
2023/12/26 11:08:30;;;;;;;;;;;;;;;;;;107449;1253;60556;-81
2023/12/26 11:10:56;;;;;;;;;;;;;;;;;;107413;1254;61773;-81
2023/12/26 11:13:22;;;;;;;;;;;;;;;;;;107366;1253;60556;-81
2023/12/26 11:15:49;;;;;;;;;;;;;;;;;;107483;1254;60388;-81
2023/12/26 11:18:15;;;;;;;;;;;;;;;;;;107380;1254;60573;-81
2023/12/26 11:20:41;;;;;;;;;;;;;;;;;;107410;1252;60695;-81
2023/12/26 11:23:08;;;;;;;;;;;;;;;;;;107436;1253;62100;-81
2023/12/26 11:25:34;;;;;;;;;;;;;;;;;;107490;1254;61746;-81
2023/12/26 11:28:00;;;;;;;;;;;;;;;;;;107441;1254;60568;-81
2023/12/26 11:30:27;;;;;;;;;;;;;;;;;;107482;1253;61649;-81
2023/12/26 11:32:54;;;;;;;;;;;;;;;;;;107462;1253;61468;-81
2023/12/26 11:35:20;;;;;;;;;;;;;;;;;;107394;1253;61737;-81
2023/12/26 11:37:46;;;;;;;;;;;;;;;;;;107448;1252;61754;-81
2023/12/26 11:40:13;;;;;;;;;;;;;;;;;;107541;1253;61676;-81
2023/12/26 11:42:39;;;;;;;;;;;;;;;;;;107405;1253;60603;-81
2023/12/26 11:45:06;;;;;;;;;;;;;;;;;;107404;1256;61598;-81
2023/12/26 11:47:32;;;;;;;;;;;;;;;;;;107508;1253;62462;-81
2023/12/26 11:49:58;;;;;;;;;;;;;;;;;;107524;1253;60483;-81
2023/12/26 11:52:25;;;;;;;;;;;;;;;;;;107525;1253;60048;-81
2023/12/26 11:54:51;;;;;;;;;;;;;;;;;;107453;1252;61536;-81
2023/12/26 11:57:17;;;;;;;;;;;;;;;;;;107546;1254;60840;-82
2023/12/26 11:59:44;;;;;;;;;;;;;;;;;;107571;1253;60704;-82
2023/12/26 12:02:10;;;;;;;;;;;;;;;;;;107461;1254;62237;-81
2023/12/26 12:04:37;;;;;;;;;;;;;;;;;;107405;1254;63384;-82
2023/12/26 12:07:03;;;;;;;;;;;;;;;;;;107476;1253;62847;-81
2023/12/26 12:09:29;;;;;;;;;;;;;;;;;;107446;1253;61687;-81
2023/12/26 12:11:56;;;;;;;;;;;;;;;;;;107544;1253;60576;-83
2023/12/26 12:14:22;;;;;;;;;;;;;;;;;;107526;1252;60690;-81
2023/12/26 12:16:49;;;;;;;;;;;;;;;;;;107393;1253;60683;-82
2023/12/26 12:19:15;;;;;;;;;;;;;;;;;;107404;1254;60698;-81
2023/12/26 12:21:41;;;;;;;;;;;;;;;;;;107398;1253;60658;-81
2023/12/26 12:24:08;;;;;;;;;;;;;;;;;;107375;1254;60508;-81
2023/12/26 12:26:34;;;;;;;;;;;;;;;;;;107412;1254;62754;-81
2023/12/26 12:29:00;;;;;;;;;;;;;;;;;;107545;1254;63003;-81
2023/12/26 12:31:27;;;;;;;;;;;;;;;;;;107774;1253;62834;-81
2023/12/26 12:33:53;;;;;;;;;;;;;;;;;;107499;1253;61779;-81
2023/12/26 12:36:19;;;;;;;;;;;;;;;;;;107466;1252;60702;-81
2023/12/26 12:38:46;;;;;;;;;;;;;;;;;;107455;1253;61723;-81
2023/12/26 12:41:12;;;;;;;;;;;;;;;;;;107492;1254;60625;-81
2023/12/26 12:43:39;;;;;;;;;;;;;;;;;;107469;1253;60630;-81
2023/12/26 12:46:05;;;;;;;;;;;;;;;;;;107354;1253;60786;-81
2023/12/26 12:48:31;;;;;;;;;;;;;;;;;;107414;1253;60736;-81
2023/12/26 12:50:58;;;;;;;;;;;;;;;;;;107487;1253;60637;-81
2023/12/26 12:53:24;;;;;;;;;;;;;;;;;;107471;1254;62969;-81
2023/12/26 12:55:50;;;;;;;;;;;;;;;;;;107415;1254;60641;-81
2023/12/26 12:58:17;;;;;;;;;;;;;;;;;;107426;1254;61832;-81
2023/12/26 13:00:43;;;;;;;;;;;;;;;;;;107435;1253;60596;-80
2023/12/26 13:03:10;;;;;;;;;;;;;;;;;;107410;1253;61634;-81
2023/12/26 13:05:36;;;;;;;;;;;;;;;;;;107439;1253;62751;-81
2023/12/26 13:08:02;;;;;;;;;;;;;;;;;;107433;1254;60698;-81
2023/12/26 13:10:29;;;;;;;;;;;;;;;;;;107402;1253;60637;-81
2023/12/26 13:12:56;;;;;;;;;;;;;;;;;;107512;1252;60506;-81
2023/12/26 13:15:22;;;;;;;;;;;;;;;;;;107507;1252;60695;-81
2023/12/26 13:17:48;;;;;;;;;;;;;;;;;;107404;1254;62277;-81
2023/12/26 13:20:15;;;;;;;;;;;;;;;;;;107471;1254;60722;-81
2023/12/26 13:22:41;;;;;;;;;;;;;;;;;;107511;1254;60495;-81
2023/12/26 13:25:07;;;;;;;;;;;;;;;;;;107422;1253;60790;-81
2023/12/26 13:27:34;;;;;;;;;;;;;;;;;;107453;1252;62708;-81
2023/12/26 13:30:00;;;;;;;;;;;;;;;;;;107397;1254;60616;-81
2023/12/26 13:32:27;;;;;;;;;;;;;;;;;;107422;1252;61571;-81
2023/12/26 13:34:53;;;;;;;;;;;;;;;;;;107336;1256;61652;-81
2023/12/26 13:37:19;;;;;;;;;;;;;;;;;;107388;1252;60637;-81
2023/12/26 13:39:46;;;;;;;;;;;;;;;;;;107427;1253;61642;-81
2023/12/26 13:42:12;;;;;;;;;;;;;;;;;;107440;1253;61757;-81
2023/12/26 13:44:38;;;;;;;;;;;;;;;;;;107454;1253;61632;-80
2023/12/26 13:47:05;;;;;;;;;;;;;;;;;;107444;1254;62211;-81
2023/12/26 13:49:31;;;;;;;;;;;;;;;;;;107448;1253;60636;-81
2023/12/26 13:51:57;;;;;;;;;;;;;;;;;;107517;1253;60452;-80
2023/12/26 13:54:24;;;;;;;;;;;;;;;;;;107508;1253;61632;-81
2023/12/26 13:56:50;;;;;;;;;;;;;;;;;;107561;1252;61669;-81
2023/12/26 13:59:16;;;;;;;;;;;;;;;;;;107507;1253;61648;-81
2023/12/26 14:01:43;;;;;;;;;;;;;;;;;;107515;1254;60577;-81
2023/12/26 14:04:09;;;;;;;;;;;;;;;;;;107503;1254;62042;-81
2023/12/26 14:06:36;;;;;;;;;;;;;;;;;;107451;1253;62488;-81
2023/12/26 14:09:03;;;;;;;;;;;;;;;;;;107410;1252;61848;-80
2023/12/26 14:11:29;;;;;;;;;;;;;;;;;;107447;1252;60687;-81
2023/12/26 14:13:56;;;;;;;;;;;;;;;;;;107561;1252;61526;-81
2023/12/26 14:16:23;;;;;;;;;;;;;;;;;;107518;1253;60630;-81
2023/12/26 14:18:49;;;;;;;;;;;;;;;;;;107503;1254;60727;-81
2023/12/26 14:21:16;;;;;;;;;;;;;;;;;;107538;1254;60625;-82
2023/12/26 14:23:42;;;;;;;;;;;;;;;;;;107550;1252;60594;-81
2023/12/26 14:26:09;;;;;;;;;;;;;;;;;;107517;1252;62969;-82
2023/12/26 14:28:35;;;;;;;;;;;;;;;;;;107473;1253;62779;-81
2023/12/26 14:31:02;;;;;;;;;;;;;;;;;;107468;1253;62517;-80
2023/12/26 14:33:28;;;;;;;;;;;;;;;;;;107405;1253;61865;-81
2023/12/26 14:35:54;;;;;;;;;;;;;;;;;;107387;1253;61723;-81
2023/12/26 14:38:21;;;;;;;;;;;;;;;;;;107352;1256;60049;-81
2023/12/26 14:40:47;;;;;;;;;;;;;;;;;;107402;1252;60656;-81
2023/12/26 14:43:14;;;;;;;;;;;;;;;;;;107423;1252;60764;-80
2023/12/26 14:45:40;;;;;;;;;;;;;;;;;;107367;1254;62143;-81
2023/12/26 14:48:06;;;;;;;;;;;;;;;;;;107420;1254;60961;-81
2023/12/26 14:50:33;;;;;;;;;;;;;;;;;;107926;1252;60718;-81
2023/12/26 14:52:59;;;;;;;;;;;;;;;;;;109530;1253;59999;-81
2023/12/26 14:55:25;;;;;;;;;;;;;;;;;;108176;1254;60094;-81
2023/12/26 14:57:52;;;;;;;;;;;;;;;;;;107443;1254;61717;-81
2023/12/26 15:00:18;;;;;;;;;;;;;;;;;;107475;1254;60631;-81
2023/12/26 15:02:46;;;;;;;;;;;;;;;;;;107460;1253;60620;-81
2023/12/26 15:05:13;;;;;;;;;;;;;;;;;;107420;1254;61346;-81
2023/12/26 15:07:39;;;;;;;;;;;;;;;;;;107490;1254;61674;-81
2023/12/26 15:10:06;;;;;;;;;;;;;;;;;;107407;1254;61687;-81
2023/12/26 15:12:32;;;;;;;;;;;;;;;;;;107360;1253;60660;-81
2023/12/26 15:14:58;;;;;;;;;;;;;;;;;;107468;1253;61454;-81
2023/12/26 15:17:25;;;;;;;;;;;;;;;;;;107467;1253;60690;-81
2023/12/26 15:19:52;;;;;;;;;;;;;;;;;;107474;1254;61814;-81
2023/12/26 15:22:18;;;;;;;;;;;;;;;;;;107466;1253;61482;-81
2023/12/26 15:24:44;;;;;;;;;;;;;;;;;;107384;1253;60727;-80
2023/12/26 15:27:11;;;;;;;;;;;;;;;;;;107542;1254;61661;-81
2023/12/26 15:29:37;;;;;;;;;;;;;;;;;;107444;1253;62822;-81
2023/12/26 15:32:04;;;;;;;;;;;;;;;;;;107416;1253;61436;-81
2023/12/26 15:34:30;;;;;;;;;;;;;;;;;;107424;1253;62730;-81
2023/12/26 15:36:56;;;;;;;;;;;;;;;;;;107404;1253;61464;-81
2023/12/26 15:39:23;;;;;;;;;;;;;;;;;;107481;1252;60641;-81
2023/12/26 15:41:49;;;;;;;;;;;;;;;;;;107383;1253;60441;-81
2023/12/26 15:44:16;;;;;;;;;;;;;;;;;;107395;1254;61316;-80
2023/12/26 15:46:42;;;;;;;;;;;;;;;;;;107419;1252;60612;-81
2023/12/26 15:49:08;;;;;;;;;;;;;;;;;;107363;1254;61845;-81
2023/12/26 15:51:35;;;;;;;;;;;;;;;;;;107313;1254;60550;-81
2023/12/26 15:54:01;;;;;;;;;;;;;;;;;;107394;1253;60581;-81
2023/12/26 15:56:28;;;;;;;;;;;;;;;;;;107421;1253;61641;-81
2023/12/26 15:58:55;;;;;;;;;;;;;;;;;;107402;1254;61679;-81
2023/12/26 16:01:21;;;;;;;;;;;;;;;;;;107380;1254;60712;-81
2023/12/26 16:03:48;;;;;;;;;;;;;;;;;;107437;1254;60695;-82
2023/12/26 16:06:14;;;;;;;;;;;;;;;;;;107423;1254;62689;-81
2023/12/26 16:08:41;;;;;;;;;;;;;;;;;;107430;1253;60301;-80
2023/12/26 16:11:07;;;;;;;;;;;;;;;;;;107473;1253;61629;-81
2023/12/26 16:13:34;;;;;;;;;;;;;;;;;;107449;1254;60753;-81
2023/12/26 16:16:00;;;;;;;;;;;;;;;;;;107564;1252;60490;-81
2023/12/26 16:18:26;;;;;;;;;;;;;;;;;;107532;1254;61744;-81
2023/12/26 16:20:53;;;;;;;;;;;;;;;;;;107431;1254;60622;-81
2023/12/26 16:23:19;;;;;;;;;;;;;;;;;;107450;1253;61703;-81